Airfield :







YOU CAN JOIN US ON...

 
LOGIN :

Register | Disclaimer

   EN    FR    IT 

 









Legend :    VFR   Marginal VFR   IFR   Intensive IFR   Very Intensive IFR
Visi :
Ceiling :
>= 8 km
>= 3000ft
5 to 8 km
1000 to 3000 ft
1500m to 5 km
500 to 1000 ft
800 to 1500m
200 to 500 ft
< 800m
< 200 ft
Symbols :   Thunderstorms  Fog  Heavy snow  Heavy precipitations  Wind > 20 kt







- Airport Elevation : 180 ft
- IATA code : YZV


CYZV - Sept-Iles

CURRENT METAR :
  • 181100Z 03008KT 30SM SKC 03/M01 A3034 RMK SLP278

EXPIRED METARs :
  • 181000Z 02006KT 30SM FEW240 02/M01 A3033 RMK CI2 SLP275
  • 180900Z 02007KT 15SM SKC 02/M02 A3032 RMK SLP270

TAF TAF CYZV
Valid from the 18 at 06:00 until the 19 at 06:00 UTC


180541Z 1806/1906 35005KT P6SM SKC
BECMG 1812/1814 VRB03KT
BECMG 1816/1818 22012KT
FM190200 VRB03KT P6SM SKC RMK NXT FCST BY 181200Z
No reported NOTAMs for that airfield.



MET'MAP, your aeronautical weather chart ! - Copyright ORBIFLY December 2007 - Disclaimer

ORBIFLY MET'MAP TEAM :

Programming & Development : Alexandra Zaïnal
Concept & Development : Baudouin d'Aumeries
Co-Development & Prog : Marc-Olivier Méhu
Technical & hardware support : Manuel Goepfert

Contact : metmap@orbifly.com




SOURCES & CREDITS :

   NOAA